sensor_id;sensor_type;location;lat;lon;timestamp;P1;durP1;ratioP1;P2;durP2;ratioP2
77324;SDS011;66387;53.440;10.390;2023-11-21T00:00:45;13.43;;;7.70;;
77324;SDS011;66387;53.440;10.390;2023-11-21T00:03:11;14.40;;;7.55;;
77324;SDS011;66387;53.440;10.390;2023-11-21T00:05:39;12.50;;;6.90;;
77324;SDS011;66387;53.440;10.390;2023-11-21T00:08:06;10.13;;;6.30;;
77324;SDS011;66387;53.440;10.390;2023-11-21T00:10:32;10.32;;;6.05;;
77324;SDS011;66387;53.440;10.390;2023-11-21T00:12:57;13.13;;;7.88;;
77324;SDS011;66387;53.440;10.390;2023-11-21T00:15:23;12.83;;;7.23;;
77324;SDS011;66387;53.440;10.390;2023-11-21T00:17:48;10.25;;;6.75;;
77324;SDS011;66387;53.440;10.390;2023-11-21T00:20:13;14.40;;;7.73;;
77324;SDS011;66387;53.440;10.390;2023-11-21T00:22:39;10.40;;;6.70;;
77324;SDS011;66387;53.440;10.390;2023-11-21T00:25:05;10.25;;;7.40;;
77324;SDS011;66387;53.440;10.390;2023-11-21T00:27:31;9.45;;;5.32;;
77324;SDS011;66387;53.440;10.390;2023-11-21T00:29:56;12.67;;;7.67;;
77324;SDS011;66387;53.440;10.390;2023-11-21T00:32:22;13.73;;;6.57;;
77324;SDS011;66387;53.440;10.390;2023-11-21T00:34:47;10.63;;;6.80;;
77324;SDS011;66387;53.440;10.390;2023-11-21T00:37:12;9.57;;;6.33;;
77324;SDS011;66387;53.440;10.390;2023-11-21T00:39:37;10.63;;;6.00;;
77324;SDS011;66387;53.440;10.390;2023-11-21T00:42:03;13.20;;;7.30;;
77324;SDS011;66387;53.440;10.390;2023-11-21T00:44:29;12.18;;;8.23;;
77324;SDS011;66387;53.440;10.390;2023-11-21T00:46:55;15.18;;;9.23;;
77324;SDS011;66387;53.440;10.390;2023-11-21T00:49:20;17.70;;;8.63;;
77324;SDS011;66387;53.440;10.390;2023-11-21T00:51:45;11.63;;;8.70;;
77324;SDS011;66387;53.440;10.390;2023-11-21T00:54:11;13.37;;;7.97;;
77324;SDS011;66387;53.440;10.390;2023-11-21T00:56:36;13.90;;;7.30;;
77324;SDS011;66387;53.440;10.390;2023-11-21T00:59:02;12.68;;;7.35;;
77324;SDS011;66387;53.440;10.390;2023-11-21T01:01:29;15.45;;;7.45;;
77324;SDS011;66387;53.440;10.390;2023-11-21T01:03:55;12.87;;;7.83;;
77324;SDS011;66387;53.440;10.390;2023-11-21T01:06:20;12.07;;;8.33;;
77324;SDS011;66387;53.440;10.390;2023-11-21T01:08:45;12.80;;;8.17;;
77324;SDS011;66387;53.440;10.390;2023-11-21T01:11:11;12.70;;;8.63;;
77324;SDS011;66387;53.440;10.390;2023-11-21T01:13:39;10.88;;;7.93;;
77324;SDS011;66387;53.440;10.390;2023-11-21T01:16:05;10.25;;;7.68;;
77324;SDS011;66387;53.440;10.390;2023-11-21T01:18:31;12.43;;;8.73;;
77324;SDS011;66387;53.440;10.390;2023-11-21T01:20:57;14.75;;;8.57;;
77324;SDS011;66387;53.440;10.390;2023-11-21T01:23:22;11.63;;;8.10;;
77324;SDS011;66387;53.440;10.390;2023-11-21T01:25:48;12.75;;;8.25;;
77324;SDS011;66387;53.440;10.390;2023-11-21T01:28:13;11.10;;;7.30;;
77324;SDS011;66387;53.440;10.390;2023-11-21T01:30:39;10.90;;;8.27;;
77324;SDS011;66387;53.440;10.390;2023-11-21T01:33:04;12.57;;;7.93;;
77324;SDS011;66387;53.440;10.390;2023-11-21T01:35:29;12.90;;;7.57;;
77324;SDS011;66387;53.440;10.390;2023-11-21T01:37:55;15.48;;;8.68;;
77324;SDS011;66387;53.440;10.390;2023-11-21T01:40:20;14.75;;;8.13;;
77324;SDS011;66387;53.440;10.390;2023-11-21T01:42:46;11.75;;;8.27;;
77324;SDS011;66387;53.440;10.390;2023-11-21T01:45:12;10.27;;;6.75;;
77324;SDS011;66387;53.440;10.390;2023-11-21T01:47:38;10.27;;;7.40;;
77324;SDS011;66387;53.440;10.390;2023-11-21T01:50:05;14.40;;;8.68;;
77324;SDS011;66387;53.440;10.390;2023-11-21T01:52:32;14.88;;;7.43;;
77324;SDS011;66387;53.440;10.390;2023-11-21T01:54:59;13.55;;;7.25;;
77324;SDS011;66387;53.440;10.390;2023-11-21T01:57:25;9.48;;;5.72;;
77324;SDS011;66387;53.440;10.390;2023-11-21T01:59:51;8.05;;;6.38;;
77324;SDS011;66387;53.440;10.390;2023-11-21T02:04:44;9.77;;;6.23;;
77324;SDS011;66387;53.440;10.390;2023-11-21T02:07:09;10.53;;;7.13;;
77324;SDS011;66387;53.440;10.390;2023-11-21T02:09:35;8.93;;;6.20;;
77324;SDS011;66387;53.440;10.390;2023-11-21T02:12:03;7.72;;;5.07;;
77324;SDS011;66387;53.440;10.390;2023-11-21T02:14:29;7.90;;;6.07;;
77324;SDS011;66387;53.440;10.390;2023-11-21T02:16:55;6.45;;;4.60;;
77324;SDS011;66387;53.440;10.390;2023-11-21T02:19:22;7.35;;;4.57;;
77324;SDS011;66387;53.440;10.390;2023-11-21T02:26:43;7.53;;;4.82;;
77324;SDS011;66387;53.440;10.390;2023-11-21T02:29:08;6.67;;;4.40;;
77324;SDS011;66387;53.440;10.390;2023-11-21T02:31:36;11.05;;;5.40;;
77324;SDS011;66387;53.440;10.390;2023-11-21T02:34:10;8.43;;;5.05;;
77324;SDS011;66387;53.440;10.390;2023-11-21T02:36:38;7.43;;;5.43;;
77324;SDS011;66387;53.440;10.390;2023-11-21T02:39:03;9.80;;;5.55;;
77324;SDS011;66387;53.440;10.390;2023-11-21T02:41:29;7.87;;;5.37;;
77324;SDS011;66387;53.440;10.390;2023-11-21T02:43:54;10.25;;;6.10;;
77324;SDS011;66387;53.440;10.390;2023-11-21T02:46:19;11.20;;;6.60;;
77324;SDS011;66387;53.440;10.390;2023-11-21T02:48:44;8.20;;;5.60;;
77324;SDS011;66387;53.440;10.390;2023-11-21T02:51:09;9.07;;;5.67;;
77324;SDS011;66387;53.440;10.390;2023-11-21T02:53:35;9.70;;;5.73;;
77324;SDS011;66387;53.440;10.390;2023-11-21T02:56:00;8.30;;;6.00;;
77324;SDS011;66387;53.440;10.390;2023-11-21T02:58:26;10.65;;;6.60;;
77324;SDS011;66387;53.440;10.390;2023-11-21T03:00:51;7.87;;;5.50;;
77324;SDS011;66387;53.440;10.390;2023-11-21T03:03:16;10.40;;;6.10;;
77324;SDS011;66387;53.440;10.390;2023-11-21T03:05:42;9.65;;;6.45;;
77324;SDS011;66387;53.440;10.390;2023-11-21T03:08:07;10.63;;;6.40;;
77324;SDS011;66387;53.440;10.390;2023-11-21T03:10:33;9.43;;;5.70;;
77324;SDS011;66387;53.440;10.390;2023-11-21T03:12:58;7.00;;;5.50;;
77324;SDS011;66387;53.440;10.390;2023-11-21T03:15:23;7.70;;;5.17;;
77324;SDS011;66387;53.440;10.390;2023-11-21T03:17:48;12.00;;;6.47;;
77324;SDS011;66387;53.440;10.390;2023-11-21T03:20:14;9.80;;;6.70;;
77324;SDS011;66387;53.440;10.390;2023-11-21T03:22:41;11.95;;;6.45;;
77324;SDS011;66387;53.440;10.390;2023-11-21T03:25:07;8.53;;;5.50;;
77324;SDS011;66387;53.440;10.390;2023-11-21T03:27:35;8.55;;;5.85;;
77324;SDS011;66387;53.440;10.390;2023-11-21T03:30:00;7.40;;;4.90;;
77324;SDS011;66387;53.440;10.390;2023-11-21T03:32:26;9.77;;;5.20;;
77324;SDS011;66387;53.440;10.390;2023-11-21T03:34:55;9.20;;;6.35;;
77324;SDS011;66387;53.440;10.390;2023-11-21T03:37:21;9.18;;;6.28;;
77324;SDS011;66387;53.440;10.390;2023-11-21T03:39:46;7.90;;;4.80;;
77324;SDS011;66387;53.440;10.390;2023-11-21T03:42:12;10.15;;;5.93;;
77324;SDS011;66387;53.440;10.390;2023-11-21T03:44:37;6.63;;;4.63;;
77324;SDS011;66387;53.440;10.390;2023-11-21T03:47:02;7.80;;;5.33;;
77324;SDS011;66387;53.440;10.390;2023-11-21T03:49:28;7.28;;;4.80;;
77324;SDS011;66387;53.440;10.390;2023-11-21T03:51:54;7.32;;;5.25;;
77324;SDS011;66387;53.440;10.390;2023-11-21T03:54:19;7.40;;;6.05;;
77324;SDS011;66387;53.440;10.390;2023-11-21T03:56:44;8.83;;;5.37;;
77324;SDS011;66387;53.440;10.390;2023-11-21T03:59:10;9.37;;;6.50;;
77324;SDS011;66387;53.440;10.390;2023-11-21T04:01:35;8.43;;;5.63;;
77324;SDS011;66387;53.440;10.390;2023-11-21T04:04:00;7.40;;;5.47;;
77324;SDS011;66387;53.440;10.390;2023-11-21T04:06:25;10.33;;;5.70;;
77324;SDS011;66387;53.440;10.390;2023-11-21T04:08:51;9.80;;;5.73;;
77324;SDS011;66387;53.440;10.390;2023-11-21T04:11:16;8.83;;;6.30;;
77324;SDS011;66387;53.440;10.390;2023-11-21T04:13:41;8.80;;;6.75;;
77324;SDS011;66387;53.440;10.390;2023-11-21T04:16:07;8.55;;;6.68;;
77324;SDS011;66387;53.440;10.390;2023-11-21T04:18:36;9.38;;;6.93;;
77324;SDS011;66387;53.440;10.390;2023-11-21T04:21:02;9.60;;;6.30;;
77324;SDS011;66387;53.440;10.390;2023-11-21T04:23:29;8.43;;;5.47;;
77324;SDS011;66387;53.440;10.390;2023-11-21T04:25:55;10.75;;;6.55;;
77324;SDS011;66387;53.440;10.390;2023-11-21T04:28:22;11.70;;;6.97;;
77324;SDS011;66387;53.440;10.390;2023-11-21T04:30:47;10.15;;;5.68;;
77324;SDS011;66387;53.440;10.390;2023-11-21T04:33:13;10.07;;;5.60;;
77324;SDS011;66387;53.440;10.390;2023-11-21T04:35:38;8.63;;;5.60;;
77324;SDS011;66387;53.440;10.390;2023-11-21T04:38:03;11.30;;;6.73;;
77324;SDS011;66387;53.440;10.390;2023-11-21T04:40:28;7.97;;;5.60;;
77324;SDS011;66387;53.440;10.390;2023-11-21T04:42:54;10.80;;;7.27;;
77324;SDS011;66387;53.440;10.390;2023-11-21T04:45:19;9.20;;;6.88;;
77324;SDS011;66387;53.440;10.390;2023-11-21T04:47:44;8.70;;;6.10;;
77324;SDS011;66387;53.440;10.390;2023-11-21T04:50:10;10.02;;;6.47;;
77324;SDS011;66387;53.440;10.390;2023-11-21T04:52:35;10.77;;;6.53;;
77324;SDS011;66387;53.440;10.390;2023-11-21T04:55:01;8.87;;;5.57;;
77324;SDS011;66387;53.440;10.390;2023-11-21T04:57:27;8.10;;;5.75;;
77324;SDS011;66387;53.440;10.390;2023-11-21T04:59:53;7.85;;;6.00;;
77324;SDS011;66387;53.440;10.390;2023-11-21T05:02:19;9.98;;;6.43;;
77324;SDS011;66387;53.440;10.390;2023-11-21T05:04:45;8.98;;;6.35;;
77324;SDS011;66387;53.440;10.390;2023-11-21T05:07:11;10.57;;;6.80;;
77324;SDS011;66387;53.440;10.390;2023-11-21T05:09:40;10.25;;;6.65;;
77324;SDS011;66387;53.440;10.390;2023-11-21T05:12:06;9.95;;;6.05;;
77324;SDS011;66387;53.440;10.390;2023-11-21T05:14:32;12.48;;;6.45;;
77324;SDS011;66387;53.440;10.390;2023-11-21T05:16:57;10.03;;;7.07;;
77324;SDS011;66387;53.440;10.390;2023-11-21T05:19:24;8.57;;;6.05;;
77324;SDS011;66387;53.440;10.390;2023-11-21T05:21:49;9.30;;;6.00;;
77324;SDS011;66387;53.440;10.390;2023-11-21T05:24:14;10.10;;;5.93;;
77324;SDS011;66387;53.440;10.390;2023-11-21T05:26:40;9.45;;;6.45;;
77324;SDS011;66387;53.440;10.390;2023-11-21T05:29:05;9.30;;;5.77;;
77324;SDS011;66387;53.440;10.390;2023-11-21T05:31:30;8.27;;;5.73;;
77324;SDS011;66387;53.440;10.390;2023-11-21T05:33:56;10.77;;;5.93;;
77324;SDS011;66387;53.440;10.390;2023-11-21T05:36:21;9.53;;;6.03;;
77324;SDS011;66387;53.440;10.390;2023-11-21T05:38:46;10.30;;;6.97;;
77324;SDS011;66387;53.440;10.390;2023-11-21T05:41:11;8.03;;;5.83;;
77324;SDS011;66387;53.440;10.390;2023-11-21T05:43:38;9.82;;;6.15;;
77324;SDS011;66387;53.440;10.390;2023-11-21T05:46:04;8.45;;;6.00;;
77324;SDS011;66387;53.440;10.390;2023-11-21T05:48:30;7.65;;;5.93;;
77324;SDS011;66387;53.440;10.390;2023-11-21T05:50:56;8.70;;;6.30;;
77324;SDS011;66387;53.440;10.390;2023-11-21T05:53:21;10.23;;;6.20;;
77324;SDS011;66387;53.440;10.390;2023-11-21T05:55:47;10.88;;;5.97;;
77324;SDS011;66387;53.440;10.390;2023-11-21T05:58:12;8.77;;;6.10;;
77324;SDS011;66387;53.440;10.390;2023-11-21T06:00:38;8.77;;;6.32;;
77324;SDS011;66387;53.440;10.390;2023-11-21T06:03:04;8.10;;;5.80;;
77324;SDS011;66387;53.440;10.390;2023-11-21T06:05:31;12.93;;;7.13;;
77324;SDS011;66387;53.440;10.390;2023-11-21T06:07:57;11.40;;;6.80;;
77324;SDS011;66387;53.440;10.390;2023-11-21T06:10:25;11.85;;;6.93;;
77324;SDS011;66387;53.440;10.390;2023-11-21T06:12:51;8.80;;;6.05;;
77324;SDS011;66387;53.440;10.390;2023-11-21T06:15:17;9.48;;;6.80;;
77324;SDS011;66387;53.440;10.390;2023-11-21T06:17:48;10.25;;;6.88;;
77324;SDS011;66387;53.440;10.390;2023-11-21T06:20:19;9.23;;;6.95;;
77324;SDS011;66387;53.440;10.390;2023-11-21T06:22:46;9.35;;;6.82;;
77324;SDS011;66387;53.440;10.390;2023-11-21T06:25:13;11.10;;;6.70;;
77324;SDS011;66387;53.440;10.390;2023-11-21T06:27:39;8.02;;;6.35;;
77324;SDS011;66387;53.440;10.390;2023-11-21T06:30:06;11.80;;;6.53;;
77324;SDS011;66387;53.440;10.390;2023-11-21T06:32:33;9.65;;;6.05;;
77324;SDS011;66387;53.440;10.390;2023-11-21T06:34:59;9.40;;;5.68;;
77324;SDS011;66387;53.440;10.390;2023-11-21T06:37:26;9.50;;;6.27;;
77324;SDS011;66387;53.440;10.390;2023-11-21T06:39:52;10.27;;;6.95;;
77324;SDS011;66387;53.440;10.390;2023-11-21T06:42:17;10.43;;;6.60;;
77324;SDS011;66387;53.440;10.390;2023-11-21T06:44:44;9.60;;;6.40;;
77324;SDS011;66387;53.440;10.390;2023-11-21T06:47:10;10.30;;;6.82;;
77324;SDS011;66387;53.440;10.390;2023-11-21T06:49:35;9.43;;;7.20;;
77324;SDS011;66387;53.440;10.390;2023-11-21T06:52:01;9.00;;;6.15;;
77324;SDS011;66387;53.440;10.390;2023-11-21T06:54:28;9.63;;;6.63;;
77324;SDS011;66387;53.440;10.390;2023-11-21T06:56:53;9.20;;;5.97;;
77324;SDS011;66387;53.440;10.390;2023-11-21T06:59:18;8.47;;;6.37;;
77324;SDS011;66387;53.440;10.390;2023-11-21T07:01:43;9.23;;;6.43;;
77324;SDS011;66387;53.440;10.390;2023-11-21T07:04:09;12.60;;;7.03;;
77324;SDS011;66387;53.440;10.390;2023-11-21T07:06:34;9.07;;;6.78;;
77324;SDS011;66387;53.440;10.390;2023-11-21T07:09:00;10.55;;;7.15;;
77324;SDS011;66387;53.440;10.390;2023-11-21T07:11:26;10.30;;;6.72;;
77324;SDS011;66387;53.440;10.390;2023-11-21T07:13:51;10.77;;;7.07;;
77324;SDS011;66387;53.440;10.390;2023-11-21T07:16:17;9.77;;;6.77;;
77324;SDS011;66387;53.440;10.390;2023-11-21T07:18:43;12.95;;;8.43;;
77324;SDS011;66387;53.440;10.390;2023-11-21T07:21:08;12.70;;;7.70;;
77324;SDS011;66387;53.440;10.390;2023-11-21T07:26:02;10.40;;;6.90;;
77324;SDS011;66387;53.440;10.390;2023-11-21T07:28:27;9.80;;;7.40;;
77324;SDS011;66387;53.440;10.390;2023-11-21T07:30:53;10.03;;;6.53;;
77324;SDS011;66387;53.440;10.390;2023-11-21T07:33:18;10.47;;;6.40;;
77324;SDS011;66387;53.440;10.390;2023-11-21T07:35:43;10.57;;;7.90;;
77324;SDS011;66387;53.440;10.390;2023-11-21T07:38:08;12.90;;;6.80;;
77324;SDS011;66387;53.440;10.390;2023-11-21T07:40:34;11.50;;;7.25;;
77324;SDS011;66387;53.440;10.390;2023-11-21T07:42:59;11.05;;;8.32;;
77324;SDS011;66387;53.440;10.390;2023-11-21T07:45:25;11.90;;;7.30;;
77324;SDS011;66387;53.440;10.390;2023-11-21T07:47:52;11.32;;;7.40;;
77324;SDS011;66387;53.440;10.390;2023-11-21T07:50:19;12.32;;;6.88;;
77324;SDS011;66387;53.440;10.390;2023-11-21T07:52:45;9.95;;;6.80;;
77324;SDS011;66387;53.440;10.390;2023-11-21T07:55:10;10.65;;;6.85;;
77324;SDS011;66387;53.440;10.390;2023-11-21T07:57:36;11.80;;;7.40;;
77324;SDS011;66387;53.440;10.390;2023-11-21T08:00:01;12.10;;;7.80;;
77324;SDS011;66387;53.440;10.390;2023-11-21T08:02:28;10.10;;;7.10;;
77324;SDS011;66387;53.440;10.390;2023-11-21T08:04:53;11.17;;;7.53;;
77324;SDS011;66387;53.440;10.390;2023-11-21T08:07:20;10.90;;;7.10;;
77324;SDS011;66387;53.440;10.390;2023-11-21T08:09:45;10.23;;;7.03;;
77324;SDS011;66387;53.440;10.390;2023-11-21T08:12:11;10.82;;;7.20;;
77324;SDS011;66387;53.440;10.390;2023-11-21T08:14:37;8.88;;;7.22;;
77324;SDS011;66387;53.440;10.390;2023-11-21T08:17:04;10.20;;;7.55;;
77324;SDS011;66387;53.440;10.390;2023-11-21T08:19:29;10.52;;;7.47;;
77324;SDS011;66387;53.440;10.390;2023-11-21T08:21:54;10.50;;;7.67;;
77324;SDS011;66387;53.440;10.390;2023-11-21T08:24:21;10.57;;;6.93;;
77324;SDS011;66387;53.440;10.390;2023-11-21T08:26:46;9.82;;;6.72;;
77324;SDS011;66387;53.440;10.390;2023-11-21T08:29:12;11.07;;;6.70;;
77324;SDS011;66387;53.440;10.390;2023-11-21T08:31:37;10.37;;;7.13;;
77324;SDS011;66387;53.440;10.390;2023-11-21T08:34:03;9.60;;;6.35;;
77324;SDS011;66387;53.440;10.390;2023-11-21T08:36:28;11.47;;;6.37;;
77324;SDS011;66387;53.440;10.390;2023-11-21T08:38:53;11.73;;;6.83;;
77324;SDS011;66387;53.440;10.390;2023-11-21T08:41:19;10.50;;;6.53;;
77324;SDS011;66387;53.440;10.390;2023-11-21T08:43:48;8.48;;;5.90;;
77324;SDS011;66387;53.440;10.390;2023-11-21T08:46:15;9.20;;;6.28;;
77324;SDS011;66387;53.440;10.390;2023-11-21T08:48:41;12.02;;;6.75;;
77324;SDS011;66387;53.440;10.390;2023-11-21T08:51:09;9.25;;;6.28;;
77324;SDS011;66387;53.440;10.390;2023-11-21T08:53:36;9.32;;;6.25;;
77324;SDS011;66387;53.440;10.390;2023-11-21T08:56:02;11.48;;;7.05;;
77324;SDS011;66387;53.440;10.390;2023-11-21T08:58:29;8.55;;;5.82;;
77324;SDS011;66387;53.440;10.390;2023-11-21T09:00:54;9.90;;;6.10;;
77324;SDS011;66387;53.440;10.390;2023-11-21T09:03:19;8.10;;;5.67;;
77324;SDS011;66387;53.440;10.390;2023-11-21T09:05:45;9.43;;;5.60;;
77324;SDS011;66387;53.440;10.390;2023-11-21T09:08:10;7.83;;;5.20;;
77324;SDS011;66387;53.440;10.390;2023-11-21T09:10:35;10.10;;;5.53;;
77324;SDS011;66387;53.440;10.390;2023-11-21T09:13:01;6.97;;;5.53;;
77324;SDS011;66387;53.440;10.390;2023-11-21T09:15:27;6.70;;;4.95;;
77324;SDS011;66387;53.440;10.390;2023-11-21T09:17:52;6.55;;;5.10;;
77324;SDS011;66387;53.440;10.390;2023-11-21T09:20:18;6.15;;;5.00;;
77324;SDS011;66387;53.440;10.390;2023-11-21T09:22:43;5.83;;;4.47;;
77324;SDS011;66387;53.440;10.390;2023-11-21T09:25:09;7.40;;;4.90;;
77324;SDS011;66387;53.440;10.390;2023-11-21T09:27:35;9.93;;;4.80;;
77324;SDS011;66387;53.440;10.390;2023-11-21T09:30:03;6.90;;;4.65;;
77324;SDS011;66387;53.440;10.390;2023-11-21T09:32:30;7.55;;;5.30;;
77324;SDS011;66387;53.440;10.390;2023-11-21T09:34:55;6.55;;;4.78;;
77324;SDS011;66387;53.440;10.390;2023-11-21T09:37:23;6.45;;;5.05;;
77324;SDS011;66387;53.440;10.390;2023-11-21T09:39:48;5.68;;;4.90;;
77324;SDS011;66387;53.440;10.390;2023-11-21T09:42:15;7.23;;;4.53;;
77324;SDS011;66387;53.440;10.390;2023-11-21T09:47:30;7.22;;;5.15;;
77324;SDS011;66387;53.440;10.390;2023-11-21T09:50:00;5.70;;;4.72;;
77324;SDS011;66387;53.440;10.390;2023-11-21T09:52:27;8.40;;;4.38;;
77324;SDS011;66387;53.440;10.390;2023-11-21T09:54:54;7.15;;;4.30;;
77324;SDS011;66387;53.440;10.390;2023-11-21T09:57:23;7.05;;;4.43;;
77324;SDS011;66387;53.440;10.390;2023-11-21T09:59:52;7.18;;;4.25;;
77324;SDS011;66387;53.440;10.390;2023-11-21T10:02:24;6.18;;;4.25;;
77324;SDS011;66387;53.440;10.390;2023-11-21T10:04:53;5.80;;;4.78;;
77324;SDS011;66387;53.440;10.390;2023-11-21T10:07:19;5.50;;;4.60;;
77324;SDS011;66387;53.440;10.390;2023-11-21T10:09:45;5.10;;;3.95;;
77324;SDS011;66387;53.440;10.390;2023-11-21T10:12:11;9.77;;;4.30;;
77324;SDS011;66387;53.440;10.390;2023-11-21T10:14:40;7.90;;;3.90;;
77324;SDS011;66387;53.440;10.390;2023-11-21T10:17:07;5.38;;;4.55;;
77324;SDS011;66387;53.440;10.390;2023-11-21T10:19:33;5.38;;;3.80;;
77324;SDS011;66387;53.440;10.390;2023-11-21T10:22:01;5.20;;;4.25;;
77324;SDS011;66387;53.440;10.390;2023-11-21T10:24:28;8.77;;;4.65;;
77324;SDS011;66387;53.440;10.390;2023-11-21T10:26:54;4.75;;;3.40;;
77324;SDS011;66387;53.440;10.390;2023-11-21T10:29:19;5.93;;;3.85;;
77324;SDS011;66387;53.440;10.390;2023-11-21T10:31:48;6.78;;;3.67;;
77324;SDS011;66387;53.440;10.390;2023-11-21T10:34:15;5.50;;;3.85;;
77324;SDS011;66387;53.440;10.390;2023-11-21T10:36:42;5.63;;;3.40;;
77324;SDS011;66387;53.440;10.390;2023-11-21T10:39:07;5.15;;;3.60;;
77324;SDS011;66387;53.440;10.390;2023-11-21T10:41:34;4.53;;;3.38;;
77324;SDS011;66387;53.440;10.390;2023-11-21T10:44:00;4.03;;;3.40;;
77324;SDS011;66387;53.440;10.390;2023-11-21T10:46:26;5.85;;;3.42;;
77324;SDS011;66387;53.440;10.390;2023-11-21T10:48:52;4.90;;;3.92;;
77324;SDS011;66387;53.440;10.390;2023-11-21T10:51:20;4.53;;;3.35;;
77324;SDS011;66387;53.440;10.390;2023-11-21T10:53:46;4.82;;;3.75;;
77324;SDS011;66387;53.440;10.390;2023-11-21T10:56:12;5.37;;;3.93;;
77324;SDS011;66387;53.440;10.390;2023-11-21T10:58:42;5.07;;;3.20;;
77324;SDS011;66387;53.440;10.390;2023-11-21T11:01:08;4.90;;;3.45;;
77324;SDS011;66387;53.440;10.390;2023-11-21T11:03:36;5.97;;;3.42;;
77324;SDS011;66387;53.440;10.390;2023-11-21T11:06:03;4.82;;;3.88;;
77324;SDS011;66387;53.440;10.390;2023-11-21T11:08:32;4.68;;;3.58;;
77324;SDS011;66387;53.440;10.390;2023-11-21T11:10:59;4.30;;;3.13;;
77324;SDS011;66387;53.440;10.390;2023-11-21T11:13:24;3.90;;;3.15;;
77324;SDS011;66387;53.440;10.390;2023-11-21T11:15:50;3.20;;;2.90;;
77324;SDS011;66387;53.440;10.390;2023-11-21T11:18:21;5.05;;;3.42;;
77324;SDS011;66387;53.440;10.390;2023-11-21T11:20:47;4.30;;;3.10;;
77324;SDS011;66387;53.440;10.390;2023-11-21T11:31:32;6.03;;;3.65;;
77324;SDS011;66387;53.440;10.390;2023-11-21T11:34:08;5.20;;;3.30;;
77324;SDS011;66387;53.440;10.390;2023-11-21T11:36:49;6.30;;;3.40;;
77324;SDS011;66387;53.440;10.390;2023-11-21T11:39:38;5.38;;;3.58;;
77324;SDS011;66387;53.440;10.390;2023-11-21T11:42:12;4.97;;;3.03;;
77324;SDS011;66387;53.440;10.390;2023-11-21T11:47:14;5.15;;;3.10;;
77324;SDS011;66387;53.440;10.390;2023-11-21T11:49:54;4.93;;;2.75;;
77324;SDS011;66387;53.440;10.390;2023-11-21T11:55:08;4.43;;;3.20;;
77324;SDS011;66387;53.440;10.390;2023-11-21T11:57:35;5.22;;;3.20;;
77324;SDS011;66387;53.440;10.390;2023-11-21T12:00:08;4.57;;;2.88;;
77324;SDS011;66387;53.440;10.390;2023-11-21T12:05:14;4.30;;;2.88;;
77324;SDS011;66387;53.440;10.390;2023-11-21T12:07:44;6.28;;;3.08;;
77324;SDS011;66387;53.440;10.390;2023-11-21T12:10:12;4.28;;;3.08;;
77324;SDS011;66387;53.440;10.390;2023-11-21T12:12:43;5.85;;;2.80;;
77324;SDS011;66387;53.440;10.390;2023-11-21T12:15:10;4.20;;;3.10;;
77324;SDS011;66387;53.440;10.390;2023-11-21T12:17:36;6.43;;;2.63;;
77324;SDS011;66387;53.440;10.390;2023-11-21T12:20:02;4.20;;;2.75;;
77324;SDS011;66387;53.440;10.390;2023-11-21T12:22:29;4.13;;;2.80;;
77324;SDS011;66387;53.440;10.390;2023-11-21T12:24:55;4.63;;;2.88;;
77324;SDS011;66387;53.440;10.390;2023-11-21T12:27:21;6.03;;;3.30;;
77324;SDS011;66387;53.440;10.390;2023-11-21T12:29:46;4.40;;;3.00;;
77324;SDS011;66387;53.440;10.390;2023-11-21T12:32:11;5.22;;;3.20;;
77324;SDS011;66387;53.440;10.390;2023-11-21T12:34:36;6.40;;;3.30;;
77324;SDS011;66387;53.440;10.390;2023-11-21T12:37:03;5.13;;;3.08;;
77324;SDS011;66387;53.440;10.390;2023-11-21T12:39:29;5.30;;;3.08;;
77324;SDS011;66387;53.440;10.390;2023-11-21T12:41:55;5.70;;;3.00;;
77324;SDS011;66387;53.440;10.390;2023-11-21T12:44:20;3.93;;;3.10;;
77324;SDS011;66387;53.440;10.390;2023-11-21T12:46:48;4.65;;;3.22;;
77324;SDS011;66387;53.440;10.390;2023-11-21T12:49:14;5.00;;;3.40;;
77324;SDS011;66387;53.440;10.390;2023-11-21T12:51:42;5.28;;;3.33;;
77324;SDS011;66387;53.440;10.390;2023-11-21T12:54:09;4.38;;;3.13;;
77324;SDS011;66387;53.440;10.390;2023-11-21T12:56:38;4.13;;;2.63;;
77324;SDS011;66387;53.440;10.390;2023-11-21T12:59:03;8.75;;;3.80;;
77324;SDS011;66387;53.440;10.390;2023-11-21T13:01:29;5.97;;;3.05;;
77324;SDS011;66387;53.440;10.390;2023-11-21T13:03:56;5.13;;;3.47;;
77324;SDS011;66387;53.440;10.390;2023-11-21T13:06:23;5.40;;;3.13;;
77324;SDS011;66387;53.440;10.390;2023-11-21T13:08:50;5.63;;;3.20;;
77324;SDS011;66387;53.440;10.390;2023-11-21T13:11:16;3.65;;;3.10;;
77324;SDS011;66387;53.440;10.390;2023-11-21T13:13:42;4.03;;;3.33;;
77324;SDS011;66387;53.440;10.390;2023-11-21T13:16:11;8.23;;;3.60;;
77324;SDS011;66387;53.440;10.390;2023-11-21T13:18:36;4.00;;;3.10;;
77324;SDS011;66387;53.440;10.390;2023-11-21T13:21:07;6.05;;;3.92;;
77324;SDS011;66387;53.440;10.390;2023-11-21T13:23:38;5.82;;;3.63;;
77324;SDS011;66387;53.440;10.390;2023-11-21T13:26:06;7.00;;;3.97;;
77324;SDS011;66387;53.440;10.390;2023-11-21T13:28:32;4.68;;;3.20;;
77324;SDS011;66387;53.440;10.390;2023-11-21T13:30:58;4.50;;;3.00;;
77324;SDS011;66387;53.440;10.390;2023-11-21T13:33:46;4.38;;;3.28;;
77324;SDS011;66387;53.440;10.390;2023-11-21T13:36:19;4.53;;;3.22;;
77324;SDS011;66387;53.440;10.390;2023-11-21T13:38:47;3.85;;;2.85;;
77324;SDS011;66387;53.440;10.390;2023-11-21T13:41:13;5.25;;;3.20;;
77324;SDS011;66387;53.440;10.390;2023-11-21T13:43:39;5.33;;;2.97;;
77324;SDS011;66387;53.440;10.390;2023-11-21T13:46:04;6.05;;;3.38;;
77324;SDS011;66387;53.440;10.390;2023-11-21T13:48:38;4.18;;;3.50;;
77324;SDS011;66387;53.440;10.390;2023-11-21T13:51:08;4.47;;;3.00;;
77324;SDS011;66387;53.440;10.390;2023-11-21T13:53:41;4.25;;;3.22;;
77324;SDS011;66387;53.440;10.390;2023-11-21T13:56:07;6.50;;;3.25;;
77324;SDS011;66387;53.440;10.390;2023-11-21T13:58:33;4.07;;;3.35;;
77324;SDS011;66387;53.440;10.390;2023-11-21T14:01:16;6.00;;;3.75;;
77324;SDS011;66387;53.440;10.390;2023-11-21T14:04:03;6.20;;;4.40;;
77324;SDS011;66387;53.440;10.390;2023-11-21T14:06:45;5.63;;;4.13;;
77324;SDS011;66387;53.440;10.390;2023-11-21T14:09:17;8.02;;;5.93;;
77324;SDS011;66387;53.440;10.390;2023-11-21T14:11:54;5.40;;;4.10;;
77324;SDS011;66387;53.440;10.390;2023-11-21T14:14:22;5.85;;;4.28;;
77324;SDS011;66387;53.440;10.390;2023-11-21T14:16:49;6.00;;;4.45;;
77324;SDS011;66387;53.440;10.390;2023-11-21T14:19:16;5.97;;;4.25;;
77324;SDS011;66387;53.440;10.390;2023-11-21T14:21:42;4.70;;;3.22;;
77324;SDS011;66387;53.440;10.390;2023-11-21T14:24:13;5.30;;;3.28;;
77324;SDS011;66387;53.440;10.390;2023-11-21T14:26:41;6.82;;;4.78;;
77324;SDS011;66387;53.440;10.390;2023-11-21T14:29:07;8.13;;;4.57;;
77324;SDS011;66387;53.440;10.390;2023-11-21T14:31:33;4.85;;;3.47;;
77324;SDS011;66387;53.440;10.390;2023-11-21T14:33:59;4.53;;;3.53;;
77324;SDS011;66387;53.440;10.390;2023-11-21T14:36:26;4.85;;;3.95;;
77324;SDS011;66387;53.440;10.390;2023-11-21T14:38:52;5.53;;;3.40;;
77324;SDS011;66387;53.440;10.390;2023-11-21T14:41:17;7.67;;;4.97;;
77324;SDS011;66387;53.440;10.390;2023-11-21T14:43:42;6.77;;;3.50;;
77324;SDS011;66387;53.440;10.390;2023-11-21T14:46:10;6.30;;;3.58;;
77324;SDS011;66387;53.440;10.390;2023-11-21T14:48:39;2.92;;;2.55;;
77324;SDS011;66387;53.440;10.390;2023-11-21T14:51:10;7.80;;;5.53;;
77324;SDS011;66387;53.440;10.390;2023-11-21T14:53:55;4.78;;;3.67;;
77324;SDS011;66387;53.440;10.390;2023-11-21T14:56:24;5.43;;;3.85;;